sensor_id;sensor_type;location;lat;lon;timestamp;P1;durP1;ratioP1;P2;durP2;ratioP2
66020;SDS011;52789;59.980;30.346;2022-09-29T00:00:39;2.10;;;1.80;;
66020;SDS011;52789;59.980;30.346;2022-09-29T00:03:07;3.53;;;1.83;;
66020;SDS011;52789;59.980;30.346;2022-09-29T00:05:32;3.27;;;2.20;;
66020;SDS011;52789;59.980;30.346;2022-09-29T00:07:58;4.13;;;2.20;;
66020;SDS011;52789;59.980;30.346;2022-09-29T00:10:23;3.23;;;2.10;;
66020;SDS011;52789;59.980;30.346;2022-09-29T00:12:49;2.90;;;1.70;;
66020;SDS011;52789;59.980;30.346;2022-09-29T00:15:15;3.40;;;2.23;;
66020;SDS011;52789;59.980;30.346;2022-09-29T00:17:41;3.13;;;2.30;;
66020;SDS011;52789;59.980;30.346;2022-09-29T00:20:06;4.37;;;2.70;;
66020;SDS011;52789;59.980;30.346;2022-09-29T00:22:33;5.37;;;2.30;;
66020;SDS011;52789;59.980;30.346;2022-09-29T00:24:58;3.13;;;2.27;;
66020;SDS011;52789;59.980;30.346;2022-09-29T00:27:24;2.37;;;2.00;;
66020;SDS011;52789;59.980;30.346;2022-09-29T00:29:49;2.50;;;2.03;;
66020;SDS011;52789;59.980;30.346;2022-09-29T00:32:16;3.70;;;2.27;;
66020;SDS011;52789;59.980;30.346;2022-09-29T00:34:41;3.53;;;1.97;;
66020;SDS011;52789;59.980;30.346;2022-09-29T00:37:07;2.63;;;2.07;;
66020;SDS011;52789;59.980;30.346;2022-09-29T00:39:32;2.20;;;2.00;;
66020;SDS011;52789;59.980;30.346;2022-09-29T00:41:58;3.43;;;2.20;;
66020;SDS011;52789;59.980;30.346;2022-09-29T00:47:19;2.90;;;1.70;;
66020;SDS011;52789;59.980;30.346;2022-09-29T00:49:48;2.37;;;2.10;;
66020;SDS011;52789;59.980;30.346;2022-09-29T00:53:01;2.70;;;2.27;;
66020;SDS011;52789;59.980;30.346;2022-09-29T00:57:51;2.20;;;2.00;;
66020;SDS011;52789;59.980;30.346;2022-09-29T01:00:27;3.42;;;2.47;;
66020;SDS011;52789;59.980;30.346;2022-09-29T01:02:58;3.40;;;2.63;;
66020;SDS011;52789;59.980;30.346;2022-09-29T01:05:30;3.53;;;2.70;;
66020;SDS011;52789;59.980;30.346;2022-09-29T01:08:05;4.43;;;2.27;;
66020;SDS011;52789;59.980;30.346;2022-09-29T01:10:37;3.42;;;2.33;;
66020;SDS011;52789;59.980;30.346;2022-09-29T01:13:05;2.75;;;2.47;;
66020;SDS011;52789;59.980;30.346;2022-09-29T01:15:30;2.67;;;2.30;;
66020;SDS011;52789;59.980;30.346;2022-09-29T01:17:56;2.90;;;2.30;;
66020;SDS011;52789;59.980;30.346;2022-09-29T01:20:22;2.67;;;2.37;;
66020;SDS011;52789;59.980;30.346;2022-09-29T01:41:17;2.63;;;2.30;;
66020;SDS011;52789;59.980;30.346;2022-09-29T01:44:08;3.05;;;2.85;;
66020;SDS011;52789;59.980;30.346;2022-09-29T01:49:37;2.93;;;2.20;;
66020;SDS011;52789;59.980;30.346;2022-09-29T01:52:20;2.47;;;2.27;;
66020;SDS011;52789;59.980;30.346;2022-09-29T01:54:50;2.97;;;2.57;;
66020;SDS011;52789;59.980;30.346;2022-09-29T01:57:42;3.03;;;2.30;;
66020;SDS011;52789;59.980;30.346;2022-09-29T02:00:15;2.30;;;2.10;;
66020;SDS011;52789;59.980;30.346;2022-09-29T02:02:44;3.05;;;2.38;;
66020;SDS011;52789;59.980;30.346;2022-09-29T02:05:12;2.75;;;2.13;;
66020;SDS011;52789;59.980;30.346;2022-09-29T02:07:44;3.03;;;2.07;;
66020;SDS011;52789;59.980;30.346;2022-09-29T02:10:14;3.13;;;2.58;;
66020;SDS011;52789;59.980;30.346;2022-09-29T02:12:47;3.80;;;2.20;;
66020;SDS011;52789;59.980;30.346;2022-09-29T02:15:27;3.40;;;2.93;;
66020;SDS011;52789;59.980;30.346;2022-09-29T02:17:59;5.50;;;2.47;;
66020;SDS011;52789;59.980;30.346;2022-09-29T02:20:27;3.00;;;2.17;;
66020;SDS011;52789;59.980;30.346;2022-09-29T02:22:54;2.70;;;2.17;;
66020;SDS011;52789;59.980;30.346;2022-09-29T02:25:20;2.77;;;2.20;;
66020;SDS011;52789;59.980;30.346;2022-09-29T02:27:47;4.57;;;1.83;;
66020;SDS011;52789;59.980;30.346;2022-09-29T02:30:15;4.77;;;2.10;;
66020;SDS011;52789;59.980;30.346;2022-09-29T02:32:41;2.33;;;2.13;;
66020;SDS011;52789;59.980;30.346;2022-09-29T02:35:07;2.43;;;1.97;;
66020;SDS011;52789;59.980;30.346;2022-09-29T02:37:57;2.90;;;2.50;;
66020;SDS011;52789;59.980;30.346;2022-09-29T02:40:31;2.63;;;2.43;;
66020;SDS011;52789;59.980;30.346;2022-09-29T02:57:23;3.70;;;2.50;;
66020;SDS011;52789;59.980;30.346;2022-09-29T02:59:59;2.63;;;2.40;;
66020;SDS011;52789;59.980;30.346;2022-09-29T03:02:35;2.30;;;2.07;;
66020;SDS011;52789;59.980;30.346;2022-09-29T03:05:03;2.97;;;2.50;;
66020;SDS011;52789;59.980;30.346;2022-09-29T03:07:30;3.97;;;2.10;;
66020;SDS011;52789;59.980;30.346;2022-09-29T03:09:56;4.37;;;2.30;;
66020;SDS011;52789;59.980;30.346;2022-09-29T03:12:21;2.93;;;2.23;;
66020;SDS011;52789;59.980;30.346;2022-09-29T03:14:46;2.90;;;2.60;;
66020;SDS011;52789;59.980;30.346;2022-09-29T03:17:12;3.23;;;2.87;;
66020;SDS011;52789;59.980;30.346;2022-09-29T03:19:38;4.00;;;2.40;;
66020;SDS011;52789;59.980;30.346;2022-09-29T03:22:03;3.27;;;2.97;;
66020;SDS011;52789;59.980;30.346;2022-09-29T03:24:29;2.80;;;2.50;;
66020;SDS011;52789;59.980;30.346;2022-09-29T03:26:55;3.87;;;2.23;;
66020;SDS011;52789;59.980;30.346;2022-09-29T03:29:21;2.63;;;2.30;;
66020;SDS011;52789;59.980;30.346;2022-09-29T03:31:46;2.90;;;2.43;;
66020;SDS011;52789;59.980;30.346;2022-09-29T03:34:12;3.77;;;2.87;;
66020;SDS011;52789;59.980;30.346;2022-09-29T03:36:37;6.50;;;5.13;;
66020;SDS011;52789;59.980;30.346;2022-09-29T03:39:05;4.97;;;2.60;;
66020;SDS011;52789;59.980;30.346;2022-09-29T03:41:31;2.53;;;2.33;;
66020;SDS011;52789;59.980;30.346;2022-09-29T03:43:56;2.47;;;2.27;;
66020;SDS011;52789;59.980;30.346;2022-09-29T03:46:22;2.57;;;2.37;;
66020;SDS011;52789;59.980;30.346;2022-09-29T03:48:50;5.47;;;2.25;;
66020;SDS011;52789;59.980;30.346;2022-09-29T03:51:16;5.23;;;3.57;;
66020;SDS011;52789;59.980;30.346;2022-09-29T03:53:41;3.17;;;2.40;;
66020;SDS011;52789;59.980;30.346;2022-09-29T03:56:07;3.13;;;2.63;;
66020;SDS011;52789;59.980;30.346;2022-09-29T03:58:33;2.53;;;2.33;;
66020;SDS011;52789;59.980;30.346;2022-09-29T04:00:59;3.47;;;2.70;;
66020;SDS011;52789;59.980;30.346;2022-09-29T04:03:25;2.53;;;2.30;;
66020;SDS011;52789;59.980;30.346;2022-09-29T04:05:52;3.27;;;2.20;;
66020;SDS011;52789;59.980;30.346;2022-09-29T04:08:17;4.10;;;2.10;;
66020;SDS011;52789;59.980;30.346;2022-09-29T04:10:44;3.80;;;2.93;;
66020;SDS011;52789;59.980;30.346;2022-09-29T04:13:11;3.80;;;2.45;;
66020;SDS011;52789;59.980;30.346;2022-09-29T04:15:37;3.20;;;2.57;;
66020;SDS011;52789;59.980;30.346;2022-09-29T04:18:02;3.00;;;2.30;;
66020;SDS011;52789;59.980;30.346;2022-09-29T04:20:28;3.13;;;2.83;;
66020;SDS011;52789;59.980;30.346;2022-09-29T04:22:53;4.03;;;3.20;;
66020;SDS011;52789;59.980;30.346;2022-09-29T04:25:19;3.77;;;2.87;;
66020;SDS011;52789;59.980;30.346;2022-09-29T04:27:45;4.90;;;2.43;;
66020;SDS011;52789;59.980;30.346;2022-09-29T04:30:10;4.43;;;2.57;;
66020;SDS011;52789;59.980;30.346;2022-09-29T04:32:36;4.03;;;2.43;;
66020;SDS011;52789;59.980;30.346;2022-09-29T04:37:30;3.03;;;2.63;;
66020;SDS011;52789;59.980;30.346;2022-09-29T04:39:56;2.80;;;2.50;;
66020;SDS011;52789;59.980;30.346;2022-09-29T04:42:21;4.67;;;2.63;;
66020;SDS011;52789;59.980;30.346;2022-09-29T04:44:47;3.70;;;3.03;;
66020;SDS011;52789;59.980;30.346;2022-09-29T04:47:13;3.90;;;3.00;;
66020;SDS011;52789;59.980;30.346;2022-09-29T04:49:40;7.07;;;3.60;;
66020;SDS011;52789;59.980;30.346;2022-09-29T04:52:05;4.80;;;2.87;;
66020;SDS011;52789;59.980;30.346;2022-09-29T04:54:34;5.70;;;3.40;;
66020;SDS011;52789;59.980;30.346;2022-09-29T04:56:59;4.95;;;2.97;;
66020;SDS011;52789;59.980;30.346;2022-09-29T04:59:27;4.13;;;2.90;;
66020;SDS011;52789;59.980;30.346;2022-09-29T05:01:53;3.80;;;2.87;;
66020;SDS011;52789;59.980;30.346;2022-09-29T05:04:22;6.13;;;3.43;;
66020;SDS011;52789;59.980;30.346;2022-09-29T05:06:47;4.10;;;3.70;;
66020;SDS011;52789;59.980;30.346;2022-09-29T05:09:13;4.47;;;3.17;;
66020;SDS011;52789;59.980;30.346;2022-09-29T05:11:38;4.60;;;3.77;;
66020;SDS011;52789;59.980;30.346;2022-09-29T05:14:04;5.63;;;3.80;;
66020;SDS011;52789;59.980;30.346;2022-09-29T05:16:30;4.07;;;3.53;;
66020;SDS011;52789;59.980;30.346;2022-09-29T05:18:56;4.77;;;3.70;;
66020;SDS011;52789;59.980;30.346;2022-09-29T05:21:22;4.77;;;3.80;;
66020;SDS011;52789;59.980;30.346;2022-09-29T05:23:50;5.73;;;4.70;;
66020;SDS011;52789;59.980;30.346;2022-09-29T05:26:15;5.18;;;4.40;;
66020;SDS011;52789;59.980;30.346;2022-09-29T05:28:45;5.03;;;4.43;;
66020;SDS011;52789;59.980;30.346;2022-09-29T05:31:11;6.30;;;4.20;;
66020;SDS011;52789;59.980;30.346;2022-09-29T05:33:38;4.97;;;4.20;;
66020;SDS011;52789;59.980;30.346;2022-09-29T05:36:05;4.70;;;4.30;;
66020;SDS011;52789;59.980;30.346;2022-09-29T05:38:32;5.90;;;4.43;;
66020;SDS011;52789;59.980;30.346;2022-09-29T05:41:02;6.70;;;4.17;;
66020;SDS011;52789;59.980;30.346;2022-09-29T05:43:29;5.53;;;4.83;;
66020;SDS011;52789;59.980;30.346;2022-09-29T05:46:01;5.33;;;4.90;;
66020;SDS011;52789;59.980;30.346;2022-09-29T05:48:28;10.13;;;9.23;;
66020;SDS011;52789;59.980;30.346;2022-09-29T05:50:58;7.23;;;4.90;;
66020;SDS011;52789;59.980;30.346;2022-09-29T05:53:31;5.03;;;4.53;;
66020;SDS011;52789;59.980;30.346;2022-09-29T05:56:06;4.37;;;3.97;;
66020;SDS011;52789;59.980;30.346;2022-09-29T05:58:36;6.60;;;5.00;;
66020;SDS011;52789;59.980;30.346;2022-09-29T06:01:06;5.33;;;4.70;;
66020;SDS011;52789;59.980;30.346;2022-09-29T06:03:57;4.50;;;4.10;;
66020;SDS011;52789;59.980;30.346;2022-09-29T06:06:24;4.93;;;4.23;;
66020;SDS011;52789;59.980;30.346;2022-09-29T06:08:51;4.43;;;4.03;;
66020;SDS011;52789;59.980;30.346;2022-09-29T06:11:18;4.30;;;3.90;;
66020;SDS011;52789;59.980;30.346;2022-09-29T06:13:50;5.57;;;3.57;;
66020;SDS011;52789;59.980;30.346;2022-09-29T06:16:17;4.80;;;4.15;;
66020;SDS011;52789;59.980;30.346;2022-09-29T06:18:44;4.60;;;4.20;;
66020;SDS011;52789;59.980;30.346;2022-09-29T06:21:13;4.95;;;4.20;;
66020;SDS011;52789;59.980;30.346;2022-09-29T06:23:43;4.50;;;4.07;;
66020;SDS011;52789;59.980;30.346;2022-09-29T06:26:09;5.90;;;4.10;;
66020;SDS011;52789;59.980;30.346;2022-09-29T06:28:37;4.65;;;3.42;;
66020;SDS011;52789;59.980;30.346;2022-09-29T06:31:04;5.07;;;3.60;;
66020;SDS011;52789;59.980;30.346;2022-09-29T06:33:32;4.95;;;4.45;;
66020;SDS011;52789;59.980;30.346;2022-09-29T06:35:58;5.77;;;4.70;;
66020;SDS011;52789;59.980;30.346;2022-09-29T06:38:46;6.73;;;4.70;;
66020;SDS011;52789;59.980;30.346;2022-09-29T06:41:11;4.73;;;4.10;;
66020;SDS011;52789;59.980;30.346;2022-09-29T06:43:37;6.93;;;4.20;;
66020;SDS011;52789;59.980;30.346;2022-09-29T06:46:03;5.10;;;4.60;;
66020;SDS011;52789;59.980;30.346;2022-09-29T06:48:28;5.43;;;4.40;;
66020;SDS011;52789;59.980;30.346;2022-09-29T06:50:54;6.40;;;5.53;;
66020;SDS011;52789;59.980;30.346;2022-09-29T06:53:21;4.70;;;4.30;;
66020;SDS011;52789;59.980;30.346;2022-09-29T06:55:53;5.43;;;4.73;;
66020;SDS011;52789;59.980;30.346;2022-09-29T06:58:21;5.17;;;4.30;;
66020;SDS011;52789;59.980;30.346;2022-09-29T07:00:47;5.03;;;4.57;;
66020;SDS011;52789;59.980;30.346;2022-09-29T07:03:13;5.07;;;4.40;;
66020;SDS011;52789;59.980;30.346;2022-09-29T07:05:38;5.50;;;4.83;;
66020;SDS011;52789;59.980;30.346;2022-09-29T07:08:07;5.40;;;4.43;;
66020;SDS011;52789;59.980;30.346;2022-09-29T07:10:32;4.88;;;4.45;;
66020;SDS011;52789;59.980;30.346;2022-09-29T07:12:58;6.70;;;4.37;;
66020;SDS011;52789;59.980;30.346;2022-09-29T07:15:23;5.47;;;4.63;;
66020;SDS011;52789;59.980;30.346;2022-09-29T07:17:58;7.70;;;4.90;;
66020;SDS011;52789;59.980;30.346;2022-09-29T07:20:26;5.10;;;4.30;;
66020;SDS011;52789;59.980;30.346;2022-09-29T07:22:52;5.23;;;4.60;;
66020;SDS011;52789;59.980;30.346;2022-09-29T07:25:18;5.70;;;5.20;;
66020;SDS011;52789;59.980;30.346;2022-09-29T07:27:45;5.87;;;5.10;;
66020;SDS011;52789;59.980;30.346;2022-09-29T07:30:11;5.73;;;5.23;;
66020;SDS011;52789;59.980;30.346;2022-09-29T07:32:37;5.77;;;4.20;;
66020;SDS011;52789;59.980;30.346;2022-09-29T07:35:02;6.53;;;4.93;;
66020;SDS011;52789;59.980;30.346;2022-09-29T07:37:28;5.03;;;4.47;;
66020;SDS011;52789;59.980;30.346;2022-09-29T07:39:54;9.53;;;3.97;;
66020;SDS011;52789;59.980;30.346;2022-09-29T07:42:20;7.57;;;4.27;;
66020;SDS011;52789;59.980;30.346;2022-09-29T07:44:46;5.77;;;4.70;;
66020;SDS011;52789;59.980;30.346;2022-09-29T07:47:12;6.00;;;4.03;;
66020;SDS011;52789;59.980;30.346;2022-09-29T07:49:38;4.53;;;4.10;;
66020;SDS011;52789;59.980;30.346;2022-09-29T07:52:04;4.07;;;3.77;;
66020;SDS011;52789;59.980;30.346;2022-09-29T07:54:30;5.33;;;4.43;;
66020;SDS011;52789;59.980;30.346;2022-09-29T07:56:56;5.17;;;4.50;;
66020;SDS011;52789;59.980;30.346;2022-09-29T07:59:25;4.47;;;4.07;;
66020;SDS011;52789;59.980;30.346;2022-09-29T08:01:51;6.70;;;4.63;;
66020;SDS011;52789;59.980;30.346;2022-09-29T08:04:17;7.83;;;4.27;;
66020;SDS011;52789;59.980;30.346;2022-09-29T08:06:43;5.33;;;4.83;;
66020;SDS011;52789;59.980;30.346;2022-09-29T08:09:08;6.70;;;4.30;;
66020;SDS011;52789;59.980;30.346;2022-09-29T08:11:37;5.03;;;4.00;;
66020;SDS011;52789;59.980;30.346;2022-09-29T08:14:04;5.50;;;3.93;;
66020;SDS011;52789;59.980;30.346;2022-09-29T08:16:31;5.33;;;4.47;;
66020;SDS011;52789;59.980;30.346;2022-09-29T08:18:57;4.80;;;4.30;;
66020;SDS011;52789;59.980;30.346;2022-09-29T08:21:23;5.63;;;4.27;;
66020;SDS011;52789;59.980;30.346;2022-09-29T08:23:49;5.07;;;4.43;;
66020;SDS011;52789;59.980;30.346;2022-09-29T08:26:15;4.77;;;4.37;;
66020;SDS011;52789;59.980;30.346;2022-09-29T08:28:43;4.90;;;4.30;;
66020;SDS011;52789;59.980;30.346;2022-09-29T08:31:10;4.50;;;4.10;;
66020;SDS011;52789;59.980;30.346;2022-09-29T08:36:04;4.73;;;4.33;;
66020;SDS011;52789;59.980;30.346;2022-09-29T08:38:39;4.37;;;3.97;;
66020;SDS011;52789;59.980;30.346;2022-09-29T08:41:15;6.07;;;4.68;;
66020;SDS011;52789;59.980;30.346;2022-09-29T08:43:56;4.67;;;3.83;;
66020;SDS011;52789;59.980;30.346;2022-09-29T08:48:56;6.53;;;3.95;;
66020;SDS011;52789;59.980;30.346;2022-09-29T08:51:34;5.47;;;4.43;;
66020;SDS011;52789;59.980;30.346;2022-09-29T08:54:09;4.30;;;3.90;;
66020;SDS011;52789;59.980;30.346;2022-09-29T08:56:45;7.93;;;4.63;;
66020;SDS011;52789;59.980;30.346;2022-09-29T08:59:11;4.73;;;4.30;;
66020;SDS011;52789;59.980;30.346;2022-09-29T09:01:41;3.53;;;3.30;;
66020;SDS011;52789;59.980;30.346;2022-09-29T09:17:23;4.32;;;3.92;;
66020;SDS011;52789;59.980;30.346;2022-09-29T09:20:17;4.20;;;3.80;;
66020;SDS011;52789;59.980;30.346;2022-09-29T09:22:59;4.33;;;4.03;;
66020;SDS011;52789;59.980;30.346;2022-09-29T09:25:31;5.23;;;3.87;;
66020;SDS011;52789;59.980;30.346;2022-09-29T09:28:02;5.38;;;3.65;;
66020;SDS011;52789;59.980;30.346;2022-09-29T09:30:37;4.87;;;3.60;;
66020;SDS011;52789;59.980;30.346;2022-09-29T09:33:09;3.60;;;3.33;;
66020;SDS011;52789;59.980;30.346;2022-09-29T09:35:45;4.37;;;3.67;;
66020;SDS011;52789;59.980;30.346;2022-09-29T09:38:19;6.57;;;4.10;;
66020;SDS011;52789;59.980;30.346;2022-09-29T09:40:51;6.10;;;5.50;;
66020;SDS011;52789;59.980;30.346;2022-09-29T09:48:40;4.13;;;3.80;;
66020;SDS011;52789;59.980;30.346;2022-09-29T09:51:31;4.43;;;4.03;;
66020;SDS011;52789;59.980;30.346;2022-09-29T09:53:57;4.32;;;3.92;;
66020;SDS011;52789;59.980;30.346;2022-09-29T09:59:38;4.97;;;4.47;;
66020;SDS011;52789;59.980;30.346;2022-09-29T10:02:43;5.70;;;5.20;;
66020;SDS011;52789;59.980;30.346;2022-09-29T10:05:11;4.33;;;4.00;;
66020;SDS011;52789;59.980;30.346;2022-09-29T10:07:42;5.23;;;4.63;;
66020;SDS011;52789;59.980;30.346;2022-09-29T10:10:15;5.83;;;4.37;;
66020;SDS011;52789;59.980;30.346;2022-09-29T10:12:48;5.37;;;4.97;;
66020;SDS011;52789;59.980;30.346;2022-09-29T10:15:24;4.67;;;4.27;;
66020;SDS011;52789;59.980;30.346;2022-09-29T10:18:02;4.03;;;3.73;;
66020;SDS011;52789;59.980;30.346;2022-09-29T10:20:31;4.73;;;3.67;;
66020;SDS011;52789;59.980;30.346;2022-09-29T10:31:16;5.90;;;4.57;;
66020;SDS011;52789;59.980;30.346;2022-09-29T10:34:02;9.07;;;4.70;;
66020;SDS011;52789;59.980;30.346;2022-09-29T10:39:45;5.57;;;4.20;;
66020;SDS011;52789;59.980;30.346;2022-09-29T10:42:22;4.93;;;4.53;;
66020;SDS011;52789;59.980;30.346;2022-09-29T10:44:53;5.37;;;3.87;;
66020;SDS011;52789;59.980;30.346;2022-09-29T10:47:25;7.03;;;4.67;;
66020;SDS011;52789;59.980;30.346;2022-09-29T10:52:55;5.47;;;4.77;;
66020;SDS011;52789;59.980;30.346;2022-09-29T10:55:24;5.07;;;4.57;;
66020;SDS011;52789;59.980;30.346;2022-09-29T10:57:53;4.53;;;4.13;;
66020;SDS011;52789;59.980;30.346;2022-09-29T11:00:46;5.23;;;4.73;;
66020;SDS011;52789;59.980;30.346;2022-09-29T11:03:25;7.13;;;5.03;;
66020;SDS011;52789;59.980;30.346;2022-09-29T11:05:52;6.43;;;4.70;;
66020;SDS011;52789;59.980;30.346;2022-09-29T11:11:26;6.30;;;4.75;;
66020;SDS011;52789;59.980;30.346;2022-09-29T11:14:00;5.10;;;4.30;;
66020;SDS011;52789;59.980;30.346;2022-09-29T11:18:59;6.07;;;5.40;;
66020;SDS011;52789;59.980;30.346;2022-09-29T11:35:01;8.77;;;5.20;;
66020;SDS011;52789;59.980;30.346;2022-09-29T11:49:48;7.60;;;5.73;;
66020;SDS011;52789;59.980;30.346;2022-09-29T12:03:29;8.50;;;5.20;;
66020;SDS011;52789;59.980;30.346;2022-09-29T12:09:14;9.30;;;5.03;;
66020;SDS011;52789;59.980;30.346;2022-09-29T12:17:26;6.90;;;5.00;;
66020;SDS011;52789;59.980;30.346;2022-09-29T12:20:07;10.10;;;5.17;;
66020;SDS011;52789;59.980;30.346;2022-09-29T12:22:42;6.87;;;5.10;;
66020;SDS011;52789;59.980;30.346;2022-09-29T12:25:18;7.13;;;5.00;;
66020;SDS011;52789;59.980;30.346;2022-09-29T12:27:49;15.67;;;7.33;;
66020;SDS011;52789;59.980;30.346;2022-09-29T12:30:19;12.30;;;5.13;;
66020;SDS011;52789;59.980;30.346;2022-09-29T12:32:57;12.70;;;5.13;;
66020;SDS011;52789;59.980;30.346;2022-09-29T12:38:11;5.83;;;4.63;;
66020;SDS011;52789;59.980;30.346;2022-09-29T12:46:23;9.73;;;5.10;;
66020;SDS011;52789;59.980;30.346;2022-09-29T12:51:34;4.50;;;3.87;;
66020;SDS011;52789;59.980;30.346;2022-09-29T13:07:52;3.70;;;2.93;;
66020;SDS011;52789;59.980;30.346;2022-09-29T13:15:30;3.80;;;3.40;;
66020;SDS011;52789;59.980;30.346;2022-09-29T13:20:58;5.00;;;3.60;;
66020;SDS011;52789;59.980;30.346;2022-09-29T13:29:00;5.37;;;4.13;;
66020;SDS011;52789;59.980;30.346;2022-09-29T13:31:29;4.80;;;4.00;;
66020;SDS011;52789;59.980;30.346;2022-09-29T13:34:01;5.37;;;4.77;;
66020;SDS011;52789;59.980;30.346;2022-09-29T13:36:29;4.70;;;4.10;;
66020;SDS011;52789;59.980;30.346;2022-09-29T13:39:00;11.83;;;7.07;;
66020;SDS011;52789;59.980;30.346;2022-09-29T13:54:36;6.80;;;5.47;;
66020;SDS011;52789;59.980;30.346;2022-09-29T13:59:41;6.25;;;4.80;;
66020;SDS011;52789;59.980;30.346;2022-09-29T14:02:49;6.47;;;5.57;;
66020;SDS011;52789;59.980;30.346;2022-09-29T14:05:45;5.67;;;4.80;;
66020;SDS011;52789;59.980;30.346;2022-09-29T14:08:14;5.90;;;4.87;;
66020;SDS011;52789;59.980;30.346;2022-09-29T14:10:48;6.60;;;4.57;;
66020;SDS011;52789;59.980;30.346;2022-09-29T14:21:04;5.80;;;5.20;;
66020;SDS011;52789;59.980;30.346;2022-09-29T14:23:50;7.10;;;5.23;;
66020;SDS011;52789;59.980;30.346;2022-09-29T14:29:26;5.20;;;4.70;;
66020;SDS011;52789;59.980;30.346;2022-09-29T14:31:57;7.47;;;4.93;;
66020;SDS011;52789;59.980;30.346;2022-09-29T14:34:30;5.80;;;4.97;;
66020;SDS011;52789;59.980;30.346;2022-09-29T14:36:58;6.43;;;5.00;;
66020;SDS011;52789;59.980;30.346;2022-09-29T14:39:25;6.17;;;5.00;;
66020;SDS011;52789;59.980;30.346;2022-09-29T14:41:51;7.00;;;5.43;;
66020;SDS011;52789;59.980;30.346;2022-09-29T14:44:24;8.33;;;5.53;;
66020;SDS011;52789;59.980;30.346;2022-09-29T14:55:45;10.33;;;6.40;;
66020;SDS011;52789;59.980;30.346;2022-09-29T15:03:50;5.50;;;4.90;;
66020;SDS011;52789;59.980;30.346;2022-09-29T15:06:18;6.17;;;4.93;;
66020;SDS011;52789;59.980;30.346;2022-09-29T15:08:58;6.60;;;5.35;;
66020;SDS011;52789;59.980;30.346;2022-09-29T15:28:03;6.70;;;4.57;;
66020;SDS011;52789;59.980;30.346;2022-09-29T15:30:39;5.23;;;4.63;;
66020;SDS011;52789;59.980;30.346;2022-09-29T15:35:35;6.47;;;5.43;;
66020;SDS011;52789;59.980;30.346;2022-09-29T15:40:35;7.70;;;6.47;;
66020;SDS011;52789;59.980;30.346;2022-09-29T15:43:22;6.83;;;5.83;;
66020;SDS011;52789;59.980;30.346;2022-09-29T15:45:59;8.40;;;6.03;;
66020;SDS011;52789;59.980;30.346;2022-09-29T15:48:27;9.37;;;5.87;;
66020;SDS011;52789;59.980;30.346;2022-09-29T15:50:54;9.27;;;6.38;;
66020;SDS011;52789;59.980;30.346;2022-09-29T15:53:21;8.13;;;7.30;;
66020;SDS011;52789;59.980;30.346;2022-09-29T15:55:48;8.18;;;7.38;;
66020;SDS011;52789;59.980;30.346;2022-09-29T16:02:41;11.50;;;8.27;;
66020;SDS011;52789;59.980;30.346;2022-09-29T16:05:09;9.50;;;8.60;;
66020;SDS011;52789;59.980;30.346;2022-09-29T16:07:40;9.07;;;7.87;;
66020;SDS011;52789;59.980;30.346;2022-09-29T16:10:16;8.53;;;7.70;;
66020;SDS011;52789;59.980;30.346;2022-09-29T16:12:46;9.13;;;8.23;;
66020;SDS011;52789;59.980;30.346;2022-09-29T16:15:30;11.43;;;9.00;;
66020;SDS011;52789;59.980;30.346;2022-09-29T16:18:07;10.90;;;8.40;;
66020;SDS011;52789;59.980;30.346;2022-09-29T16:20:38;12.70;;;10.50;;
66020;SDS011;52789;59.980;30.346;2022-09-29T16:23:14;12.57;;;9.67;;
66020;SDS011;52789;59.980;30.346;2022-09-29T16:25:44;14.00;;;10.70;;
66020;SDS011;52789;59.980;30.346;2022-09-29T16:28:22;11.53;;;10.20;;
66020;SDS011;52789;59.980;30.346;2022-09-29T16:31:17;10.90;;;9.73;;
66020;SDS011;52789;59.980;30.346;2022-09-29T16:33:58;12.23;;;9.98;;
66020;SDS011;52789;59.980;30.346;2022-09-29T16:36:29;11.83;;;9.73;;
66020;SDS011;52789;59.980;30.346;2022-09-29T16:39:51;11.57;;;9.47;;
66020;SDS011;52789;59.980;30.346;2022-09-29T16:42:18;12.67;;;10.00;;
66020;SDS011;52789;59.980;30.346;2022-09-29T16:44:46;13.32;;;9.90;;
66020;SDS011;52789;59.980;30.346;2022-09-29T16:47:20;9.93;;;8.93;;
66020;SDS011;52789;59.980;30.346;2022-09-29T16:49:55;11.73;;;9.30;;
66020;SDS011;52789;59.980;30.346;2022-09-29T16:52:24;11.77;;;9.07;;
66020;SDS011;52789;59.980;30.346;2022-09-29T16:54:51;11.55;;;9.15;;
66020;SDS011;52789;59.980;30.346;2022-09-29T16:59:58;10.60;;;9.00;;
66020;SDS011;52789;59.980;30.346;2022-09-29T17:02:50;10.20;;;7.77;;
66020;SDS011;52789;59.980;30.346;2022-09-29T17:05:20;11.57;;;9.30;;
66020;SDS011;52789;59.980;30.346;2022-09-29T17:07:47;13.43;;;8.73;;
66020;SDS011;52789;59.980;30.346;2022-09-29T17:10:17;11.47;;;8.67;;
66020;SDS011;52789;59.980;30.346;2022-09-29T17:12:44;12.00;;;9.43;;
66020;SDS011;52789;59.980;30.346;2022-09-29T17:15:13;9.80;;;7.83;;
66020;SDS011;52789;59.980;30.346;2022-09-29T17:17:40;10.03;;;8.20;;
66020;SDS011;52789;59.980;30.346;2022-09-29T17:20:11;8.87;;;7.97;;
66020;SDS011;52789;59.980;30.346;2022-09-29T17:22:38;9.43;;;8.50;;
66020;SDS011;52789;59.980;30.346;2022-09-29T17:25:04;8.70;;;7.20;;
66020;SDS011;52789;59.980;30.346;2022-09-29T17:27:30;10.10;;;7.80;;
66020;SDS011;52789;59.980;30.346;2022-09-29T17:30:16;10.73;;;9.10;;
66020;SDS011;52789;59.980;30.346;2022-09-29T17:32:45;12.83;;;11.27;;
66020;SDS011;52789;59.980;30.346;2022-09-29T17:35:14;14.87;;;11.90;;
66020;SDS011;52789;59.980;30.346;2022-09-29T17:37:42;14.67;;;13.13;;
66020;SDS011;52789;59.980;30.346;2022-09-29T17:42:51;13.13;;;11.73;;
66020;SDS011;52789;59.980;30.346;2022-09-29T17:45:17;16.40;;;11.30;;
66020;SDS011;52789;59.980;30.346;2022-09-29T17:47:44;13.27;;;11.45;;
66020;SDS011;52789;59.980;30.346;2022-09-29T17:50:19;10.77;;;9.60;;
66020;SDS011;52789;59.980;30.346;2022-09-29T17:52:46;10.70;;;9.60;;
66020;SDS011;52789;59.980;30.346;2022-09-29T17:55:27;12.60;;;9.30;;
66020;SDS011;52789;59.980;30.346;2022-09-29T17:57:52;10.70;;;9.20;;
66020;SDS011;52789;59.980;30.346;2022-09-29T18:00:25;11.57;;;8.73;;
66020;SDS011;52789;59.980;30.346;2022-09-29T18:03:22;9.17;;;8.27;;
66020;SDS011;52789;59.980;30.346;2022-09-29T18:05:50;10.70;;;8.83;;
66020;SDS011;52789;59.980;30.346;2022-09-29T18:08:23;9.27;;;8.30;;
66020;SDS011;52789;59.980;30.346;2022-09-29T18:10:57;11.45;;;8.85;;
66020;SDS011;52789;59.980;30.346;2022-09-29T18:13:25;9.27;;;8.27;;
66020;SDS011;52789;59.980;30.346;2022-09-29T18:15:52;9.50;;;8.17;;
66020;SDS011;52789;59.980;30.346;2022-09-29T18:18:19;9.97;;;8.77;;
66020;SDS011;52789;59.980;30.346;2022-09-29T18:20:46;11.33;;;9.37;;
66020;SDS011;52789;59.980;30.346;2022-09-29T18:23:14;11.95;;;10.15;;
66020;SDS011;52789;59.980;30.346;2022-09-29T18:25:41;11.53;;;10.03;;
66020;SDS011;52789;59.980;30.346;2022-09-29T18:28:11;16.07;;;9.90;;
66020;SDS011;52789;59.980;30.346;2022-09-29T18:30:39;9.80;;;8.43;;
66020;SDS011;52789;59.980;30.346;2022-09-29T18:33:10;12.07;;;9.57;;
66020;SDS011;52789;59.980;30.346;2022-09-29T18:35:39;14.07;;;9.67;;
66020;SDS011;52789;59.980;30.346;2022-09-29T18:38:06;10.85;;;7.68;;
66020;SDS011;52789;59.980;30.346;2022-09-29T18:40:33;10.37;;;7.97;;
66020;SDS011;52789;59.980;30.346;2022-09-29T18:42:59;9.43;;;7.43;;
66020;SDS011;52789;59.980;30.346;2022-09-29T18:45:29;8.80;;;6.53;;
66020;SDS011;52789;59.980;30.346;2022-09-29T18:47:57;7.83;;;6.50;;
66020;SDS011;52789;59.980;30.346;2022-09-29T18:50:29;10.17;;;7.60;;
66020;SDS011;52789;59.980;30.346;2022-09-29T18:52:57;8.63;;;7.73;;
66020;SDS011;52789;59.980;30.346;2022-09-29T18:55:24;11.60;;;8.47;;